createdAt,value
2018-07-08T00:00:04.515Z,24.90
2018-07-08T00:02:36.009Z,24.80
2018-07-08T00:05:07.313Z,24.60
2018-07-08T00:07:39.536Z,24.50
2018-07-08T00:10:11.233Z,24.40
2018-07-08T00:12:42.672Z,24.20
2018-07-08T00:15:14.165Z,24.00
2018-07-08T00:17:45.303Z,23.70
2018-07-08T00:20:16.522Z,23.50
2018-07-08T00:22:48.295Z,23.30
2018-07-08T00:25:19.698Z,23.20
2018-07-08T00:27:51.478Z,23.10
2018-07-08T00:30:23.061Z,23.00
2018-07-08T00:32:55.172Z,22.90
2018-07-08T00:35:26.702Z,22.80
2018-07-08T00:37:58.401Z,22.70
2018-07-08T00:40:29.883Z,22.60
2018-07-08T00:43:01.611Z,22.50
2018-07-08T00:45:33.291Z,22.30
2018-07-08T00:48:04.899Z,22.20
2018-07-08T00:50:36.597Z,22.00
2018-07-08T00:53:08.235Z,21.90
2018-07-08T00:55:40.235Z,21.70
2018-07-08T00:58:12.048Z,21.60
2018-07-08T01:00:44.059Z,21.60
2018-07-08T01:03:15.690Z,21.40
2018-07-08T01:05:47.221Z,21.40
2018-07-08T01:08:18.987Z,21.30
2018-07-08T01:10:50.445Z,21.20
2018-07-08T01:13:21.923Z,21.10
2018-07-08T01:15:53.172Z,20.90
2018-07-08T01:18:24.825Z,20.70
2018-07-08T01:20:56.272Z,20.60
2018-07-08T01:23:27.831Z,20.50
2018-07-08T01:26:09.126Z,20.40
2018-07-08T01:28:41.425Z,20.40
2018-07-08T01:31:13.884Z,20.30
2018-07-08T01:33:45.155Z,20.20
2018-07-08T01:36:16.734Z,20.10
2018-07-08T01:38:48.047Z,20.00
2018-07-08T01:41:19.030Z,19.90
2018-07-08T01:43:50.766Z,19.90
2018-07-08T01:46:21.936Z,19.80
2018-07-08T01:48:53.438Z,19.60
2018-07-08T01:51:25.049Z,19.50
2018-07-08T01:53:56.767Z,19.40
2018-07-08T01:56:28.998Z,19.40
2018-07-08T01:59:00.752Z,19.30
2018-07-08T02:01:32.495Z,19.30
2018-07-08T02:04:03.627Z,19.30
2018-07-08T02:06:34.939Z,19.20
2018-07-08T02:09:06.534Z,19.20
2018-07-08T02:11:38.221Z,19.20
2018-07-08T02:14:09.408Z,19.20
2018-07-08T02:16:40.631Z,19.20
2018-07-08T02:19:11.902Z,19.00
2018-07-08T02:21:43.355Z,18.90
2018-07-08T02:24:14.990Z,18.80
2018-07-08T02:26:47.060Z,18.70
2018-07-08T02:29:18.598Z,18.70
2018-07-08T02:31:49.968Z,18.70
2018-07-08T02:34:21.523Z,18.70
2018-07-08T02:36:52.613Z,18.60
2018-07-08T02:39:25.071Z,18.50
2018-07-08T02:41:56.685Z,18.40
2018-07-08T02:44:29.719Z,18.40
2018-07-08T02:47:01.887Z,18.30
2018-07-08T02:49:33.408Z,18.20
2018-07-08T02:52:05.463Z,18.20
2018-07-08T02:54:37.252Z,18.20
2018-07-08T02:57:08.641Z,18.10
2018-07-08T02:59:39.921Z,18.10
2018-07-08T03:02:11.109Z,18.10
2018-07-08T03:04:42.530Z,18.10
2018-07-08T03:07:14.005Z,18.00
2018-07-08T03:09:45.707Z,18.00
2018-07-08T03:12:17.361Z,17.90
2018-07-08T03:14:48.953Z,18.00
2018-07-08T03:17:20.524Z,18.00
2018-07-08T03:19:52.261Z,17.90
2018-07-08T03:22:23.912Z,17.90
2018-07-08T03:24:55.307Z,17.80
2018-07-08T03:27:27.140Z,17.80
2018-07-08T03:29:58.745Z,17.70
2018-07-08T03:32:30.317Z,17.70
2018-07-08T03:35:02.038Z,17.70
2018-07-08T03:37:33.802Z,17.70
2018-07-08T03:40:05.516Z,17.70
2018-07-08T03:42:37.792Z,17.70
2018-07-08T03:45:09.059Z,17.70
2018-07-08T03:47:40.813Z,17.60
2018-07-08T03:50:12.214Z,17.50
2018-07-08T03:52:43.350Z,17.50
2018-07-08T03:55:14.508Z,17.50
2018-07-08T03:57:46.249Z,17.50
2018-07-08T04:00:17.530Z,17.30
2018-07-08T04:02:49.024Z,17.30
2018-07-08T04:05:20.747Z,17.30
2018-07-08T04:07:52.281Z,17.30
2018-07-08T04:10:23.757Z,17.30
2018-07-08T04:12:55.196Z,17.40
2018-07-08T04:15:26.856Z,17.30
2018-07-08T04:18:02.590Z,17.30
2018-07-08T04:20:34.329Z,17.20
2018-07-08T04:23:06.024Z,17.20
2018-07-08T04:25:37.587Z,17.20
2018-07-08T04:28:09.335Z,17.10
2018-07-08T04:30:40.837Z,17.20
2018-07-08T04:33:12.396Z,17.10
2018-07-08T04:35:43.866Z,17.10
2018-07-08T04:38:16.167Z,17.00
2018-07-08T04:40:47.674Z,16.80
2018-07-08T04:43:19.304Z,16.70
2018-07-08T04:45:50.828Z,16.60
2018-07-08T04:48:22.204Z,16.60
2018-07-08T04:50:53.905Z,16.60
2018-07-08T04:53:25.325Z,16.60
2018-07-08T04:55:56.832Z,16.60
2018-07-08T04:58:28.163Z,16.60
2018-07-08T05:00:59.614Z,16.50
2018-07-08T05:03:31.486Z,16.40
2018-07-08T05:06:03.060Z,16.40
2018-07-08T05:08:34.852Z,16.40
2018-07-08T05:11:06.523Z,16.30
2018-07-08T05:13:38.087Z,16.30
2018-07-08T05:16:09.925Z,16.30
2018-07-08T05:18:41.312Z,16.30
2018-07-08T05:21:12.804Z,16.10
2018-07-08T05:23:44.637Z,16.10
2018-07-08T05:26:16.650Z,16.00
2018-07-08T05:28:48.410Z,16.00
2018-07-08T05:31:19.580Z,15.90
2018-07-08T05:33:51.216Z,15.90
2018-07-08T05:36:23.020Z,15.80
2018-07-08T05:38:54.351Z,15.70
2018-07-08T05:41:26.112Z,15.60
2018-07-08T05:43:58.129Z,15.40
2018-07-08T05:46:29.458Z,15.30
2018-07-08T05:49:00.513Z,15.30
2018-07-08T05:51:31.912Z,15.10
2018-07-08T05:54:04.086Z,15.00
2018-07-08T05:56:35.329Z,14.90
2018-07-08T05:59:07.075Z,14.90
2018-07-08T06:01:38.282Z,14.90
2018-07-08T06:04:09.816Z,14.80
2018-07-08T06:06:41.221Z,14.90
2018-07-08T06:09:12.558Z,14.80
2018-07-08T06:11:44.415Z,14.80
2018-07-08T06:14:15.815Z,14.70
2018-07-08T06:16:47.744Z,14.70
2018-07-08T06:19:19.587Z,14.80
2018-07-08T06:21:51.158Z,14.70
2018-07-08T06:24:22.619Z,14.70
2018-07-08T06:26:54.389Z,14.80
2018-07-08T06:29:26.081Z,14.70
2018-07-08T06:31:57.868Z,14.70
2018-07-08T06:34:29.740Z,14.80
2018-07-08T06:37:01.240Z,14.70
2018-07-08T06:39:32.851Z,14.60
2018-07-08T06:42:04.622Z,14.60
2018-07-08T06:44:36.184Z,14.50
2018-07-08T06:47:07.632Z,14.50
2018-07-08T06:49:39.217Z,14.50
2018-07-08T06:52:10.982Z,14.50
2018-07-08T06:54:43.283Z,14.40
2018-07-08T06:57:15.656Z,14.40
2018-07-08T06:59:47.130Z,14.40
2018-07-08T07:02:18.466Z,14.50
2018-07-08T07:04:50.128Z,14.40
2018-07-08T07:07:21.819Z,14.40
2018-07-08T07:09:53.461Z,14.40
2018-07-08T07:12:24.697Z,14.40
2018-07-08T07:14:56.396Z,14.50
2018-07-08T07:17:28.036Z,14.50
2018-07-08T07:19:59.444Z,14.50
2018-07-08T07:22:31.159Z,14.60
2018-07-08T07:25:02.532Z,14.60
2018-07-08T07:27:34.340Z,14.70
2018-07-08T07:30:06.041Z,14.60
2018-07-08T07:32:37.720Z,14.60
2018-07-08T07:35:09.329Z,14.60
2018-07-08T07:37:41.956Z,14.50
2018-07-08T07:40:13.611Z,14.60
2018-07-08T07:42:45.052Z,14.60
2018-07-08T07:45:16.386Z,14.60
2018-07-08T07:47:47.667Z,14.60
2018-07-08T07:50:19.325Z,14.50
2018-07-08T07:55:21.004Z,14.50
2018-07-08T07:57:52.571Z,14.50
2018-07-08T08:00:24.460Z,14.40
2018-07-08T08:02:55.808Z,14.30
2018-07-08T08:05:27.273Z,14.20
2018-07-08T08:07:58.897Z,14.20
2018-07-08T08:10:30.370Z,14.10
2018-07-08T08:13:01.736Z,14.10
2018-07-08T08:15:33.263Z,14.00
2018-07-08T08:18:05.000Z,14.00
2018-07-08T08:20:36.736Z,13.90
2018-07-08T08:23:08.424Z,13.80
2018-07-08T08:25:39.915Z,13.80
2018-07-08T08:28:11.666Z,13.80
2018-07-08T08:30:43.871Z,13.90
2018-07-08T08:33:16.052Z,13.80
2018-07-08T08:35:47.524Z,13.80
2018-07-08T08:38:19.349Z,13.80
2018-07-08T08:40:51.096Z,13.90
2018-07-08T08:43:22.904Z,13.90
2018-07-08T08:45:54.737Z,13.80
2018-07-08T08:48:26.008Z,13.80
2018-07-08T08:50:57.612Z,13.80
2018-07-08T08:53:29.039Z,13.80
2018-07-08T08:56:12.119Z,13.80
2018-07-08T08:58:43.617Z,13.70
2018-07-08T09:01:15.302Z,13.60
2018-07-08T09:03:47.073Z,13.50
2018-07-08T09:06:18.607Z,13.50
2018-07-08T09:08:50.521Z,13.60
2018-07-08T09:11:23.251Z,13.60
2018-07-08T09:13:54.904Z,13.50
2018-07-08T09:16:26.322Z,13.40
2018-07-08T09:18:57.886Z,13.20
2018-07-08T09:21:29.638Z,13.20
2018-07-08T09:24:01.157Z,13.10
2018-07-08T09:26:32.955Z,13.00
2018-07-08T09:29:04.764Z,13.00
2018-07-08T09:31:36.625Z,12.90
2018-07-08T09:34:08.269Z,12.80
2018-07-08T09:36:40.109Z,12.90
2018-07-08T09:39:13.616Z,12.90
2018-07-08T09:41:46.470Z,12.90
2018-07-08T09:44:18.463Z,12.90
2018-07-08T09:46:50.393Z,12.90
2018-07-08T09:49:21.894Z,12.90
2018-07-08T09:51:53.480Z,12.90
2018-07-08T09:54:25.248Z,12.90
2018-07-08T09:56:57.448Z,12.90
2018-07-08T09:59:29.253Z,12.90
2018-07-08T10:02:00.823Z,12.90
2018-07-08T10:04:33.143Z,12.90
2018-07-08T10:07:05.213Z,12.90
2018-07-08T10:09:36.975Z,13.00
2018-07-08T10:12:08.706Z,13.00
2018-07-08T10:14:40.436Z,13.10
2018-07-08T10:17:12.275Z,13.10
2018-07-08T10:19:44.682Z,13.20
2018-07-08T10:22:16.724Z,13.20
2018-07-08T10:27:33.785Z,13.40
2018-07-08T10:30:06.662Z,13.50
2018-07-08T10:32:38.463Z,13.60
2018-07-08T10:35:17.991Z,13.60
2018-07-08T10:37:49.604Z,13.70
2018-07-08T10:40:21.248Z,13.80
2018-07-08T10:42:52.847Z,13.90
2018-07-08T10:45:24.459Z,14.10
2018-07-08T10:47:56.335Z,14.20
2018-07-08T10:50:28.139Z,14.40
2018-07-08T10:52:59.961Z,14.60
2018-07-08T10:55:31.768Z,14.70
2018-07-08T10:58:03.688Z,14.90
2018-07-08T11:00:35.392Z,15.10
2018-07-08T11:03:06.972Z,15.40
2018-07-08T11:05:38.791Z,15.60
2018-07-08T11:08:10.810Z,15.80
2018-07-08T11:10:42.387Z,16.10
2018-07-08T11:13:14.003Z,16.20
2018-07-08T11:15:45.647Z,16.40
2018-07-08T11:18:17.425Z,16.60
2018-07-08T11:20:49.020Z,16.70
2018-07-08T11:23:20.217Z,16.90
2018-07-08T11:25:51.748Z,17.00
2018-07-08T11:28:23.387Z,17.20
2018-07-08T11:30:55.108Z,17.50
2018-07-08T11:33:26.900Z,17.70
2018-07-08T11:35:58.263Z,17.90
2018-07-08T11:38:29.845Z,18.00
2018-07-08T11:41:01.640Z,18.10
2018-07-08T11:46:04.270Z,18.30
2018-07-08T11:48:35.447Z,18.60
2018-07-08T11:51:07.586Z,18.70
2018-07-08T11:53:39.421Z,19.10
2018-07-08T11:56:11.343Z,19.20
2018-07-08T11:58:42.957Z,19.20
2018-07-08T12:01:14.691Z,19.20
2018-07-08T12:03:46.608Z,19.20
2018-07-08T12:06:18.026Z,19.40
2018-07-08T12:08:49.793Z,19.10
2018-07-08T12:11:21.516Z,19.00
2018-07-08T12:13:53.773Z,19.00
2018-07-08T12:18:56.118Z,19.20
2018-07-08T12:21:27.508Z,19.20
2018-07-08T12:23:58.759Z,19.30
2018-07-08T12:26:30.728Z,19.40
2018-07-08T12:29:02.188Z,19.50
2018-07-08T12:31:33.776Z,19.60
2018-07-08T12:34:05.388Z,19.70
2018-07-08T12:36:37.037Z,19.60
2018-07-08T12:39:12.376Z,19.70
2018-07-08T12:41:43.936Z,19.80
2018-07-08T12:44:15.450Z,19.90
2018-07-08T12:46:47.306Z,20.00
2018-07-08T12:49:19.099Z,20.00
2018-07-08T12:51:50.955Z,20.10
2018-07-08T12:54:22.465Z,20.20
2018-07-08T12:56:53.898Z,20.40
2018-07-08T12:59:25.380Z,20.40
2018-07-08T13:01:56.783Z,20.50
2018-07-08T13:04:27.920Z,20.60
2018-07-08T13:06:59.620Z,20.80
2018-07-08T13:09:30.928Z,20.90
2018-07-08T13:12:03.080Z,21.00
2018-07-08T13:14:34.683Z,21.10
2018-07-08T13:17:06.241Z,21.20
2018-07-08T13:19:37.949Z,21.40
2018-07-08T13:22:09.380Z,21.50
2018-07-08T13:24:41.184Z,21.60
2018-07-08T13:27:12.805Z,21.80
2018-07-08T13:29:44.562Z,21.90
2018-07-08T13:32:16.238Z,22.00
2018-07-08T13:34:47.847Z,22.10
2018-07-08T13:37:19.305Z,22.20
2018-07-08T13:39:51.072Z,22.40
2018-07-08T13:42:22.895Z,22.40
2018-07-08T13:44:54.149Z,22.50
2018-07-08T13:47:25.655Z,22.60
2018-07-08T13:49:57.432Z,22.60
2018-07-08T13:52:28.843Z,22.60
2018-07-08T13:55:00.540Z,22.60
2018-07-08T13:57:32.771Z,22.70
2018-07-08T14:00:04.628Z,22.70
2018-07-08T14:02:36.294Z,22.90
2018-07-08T14:05:08.330Z,23.10
2018-07-08T14:07:40.131Z,23.40
2018-07-08T14:10:11.329Z,23.40
2018-07-08T14:12:42.947Z,23.50
2018-07-08T14:15:14.338Z,23.40
2018-07-08T14:17:45.613Z,23.50
2018-07-08T14:20:17.541Z,23.50
2018-07-08T14:22:48.910Z,23.70
2018-07-08T14:25:20.769Z,24.00
2018-07-08T14:27:51.975Z,24.00
2018-07-08T14:30:23.407Z,24.00
2018-07-08T14:32:54.715Z,24.00
2018-07-08T14:35:26.377Z,24.10
2018-07-08T14:37:57.794Z,24.10
2018-07-08T14:40:29.434Z,24.20
2018-07-08T14:43:01.055Z,24.30
2018-07-08T14:45:32.577Z,24.40
2018-07-08T14:48:03.925Z,24.50
2018-07-08T14:50:35.162Z,24.70
2018-07-08T14:53:06.639Z,24.80
2018-07-08T14:55:38.228Z,24.80
2018-07-08T14:58:09.811Z,24.70
2018-07-08T15:00:41.266Z,24.80
2018-07-08T15:03:12.653Z,24.90
2018-07-08T15:05:44.225Z,24.90
2018-07-08T15:08:15.548Z,25.00
2018-07-08T15:10:46.965Z,25.20
2018-07-08T15:13:18.415Z,25.30
2018-07-08T15:15:50.239Z,25.40
2018-07-08T15:18:21.904Z,25.50
2018-07-08T15:20:53.289Z,25.50
2018-07-08T15:23:24.549Z,25.50
2018-07-08T15:25:56.142Z,25.60
2018-07-08T15:28:27.859Z,25.80
2018-07-08T15:30:59.323Z,26.00
2018-07-08T15:33:30.815Z,26.00
2018-07-08T15:36:02.372Z,26.00
2018-07-08T15:38:33.631Z,26.10
2018-07-08T15:41:05.600Z,26.10
2018-07-08T15:43:36.779Z,26.40
2018-07-08T15:46:08.012Z,26.50
2018-07-08T15:48:39.335Z,26.60
2018-07-08T15:51:11.239Z,26.40
2018-07-08T15:53:43.501Z,26.60
2018-07-08T15:56:15.768Z,26.50
2018-07-08T16:01:18.161Z,26.60
2018-07-08T16:03:49.553Z,26.70
2018-07-08T16:06:20.665Z,26.90
2018-07-08T16:08:52.369Z,27.20
2018-07-08T16:11:23.752Z,27.20
2018-07-08T16:13:55.680Z,27.30
2018-07-08T16:16:27.407Z,27.40
2018-07-08T16:18:59.128Z,27.20
2018-07-08T16:21:30.892Z,27.20
2018-07-08T16:24:02.607Z,27.40
2018-07-08T16:26:34.298Z,27.60
2018-07-08T16:29:05.863Z,27.40
2018-07-08T16:34:07.517Z,27.90
2018-07-08T16:36:39.286Z,28.00
2018-07-08T16:39:10.769Z,28.10
2018-07-08T16:41:42.755Z,28.50
2018-07-08T16:44:15.667Z,28.90
2018-07-08T16:46:47.734Z,28.60
2018-07-08T16:49:19.374Z,28.90
2018-07-08T16:51:50.908Z,29.30
2018-07-08T16:54:22.681Z,29.20
2018-07-08T16:56:54.365Z,29.30
2018-07-08T16:59:25.765Z,29.70
2018-07-08T17:01:57.742Z,29.70
2018-07-08T17:04:29.329Z,30.00
2018-07-08T17:07:01.204Z,29.30
2018-07-08T17:09:33.147Z,30.10
2018-07-08T17:12:05.448Z,30.20
2018-07-08T17:14:36.936Z,30.40
2018-07-08T17:17:08.171Z,30.40
2018-07-08T17:19:39.362Z,30.70
2018-07-08T17:22:10.671Z,30.10
2018-07-08T17:24:42.100Z,30.40
2018-07-08T17:27:13.410Z,30.40
2018-07-08T17:29:44.942Z,30.30
2018-07-08T17:32:16.579Z,29.80
2018-07-08T17:34:48.431Z,30.00
2018-07-08T17:37:19.959Z,29.70
2018-07-08T17:39:51.836Z,29.90
2018-07-08T17:42:23.314Z,29.90
2018-07-08T17:44:54.699Z,30.10
2018-07-08T17:47:26.126Z,30.90
2018-07-08T17:49:57.817Z,30.30
2018-07-08T17:55:00.480Z,30.10
2018-07-08T17:57:31.948Z,30.40
2018-07-08T18:02:33.908Z,30.50
2018-07-08T18:05:05.264Z,30.70
2018-07-08T18:07:36.612Z,31.00
2018-07-08T18:10:08.111Z,31.20
2018-07-08T18:12:40.861Z,31.20
2018-07-08T18:15:12.326Z,31.50
2018-07-08T18:17:43.651Z,31.10
2018-07-08T18:20:15.392Z,30.90
2018-07-08T18:22:46.858Z,31.40
2018-07-08T18:25:17.896Z,31.50
2018-07-08T18:27:49.908Z,31.40
2018-07-08T18:30:21.099Z,30.90
2018-07-08T18:32:52.761Z,31.10
2018-07-08T18:35:24.095Z,31.10
2018-07-08T18:37:55.984Z,31.30
2018-07-08T18:40:27.684Z,30.90
2018-07-08T18:42:59.364Z,31.10
2018-07-08T18:45:30.812Z,30.90
2018-07-08T18:48:02.336Z,30.90
2018-07-08T18:50:33.835Z,31.40
2018-07-08T18:53:05.089Z,31.80
2018-07-08T18:55:37.064Z,31.50
2018-07-08T18:58:08.307Z,31.40
2018-07-08T19:00:39.912Z,31.20
2018-07-08T19:03:11.602Z,31.60
2018-07-08T19:05:43.718Z,31.40
2018-07-08T19:08:15.191Z,31.20
2018-07-08T19:10:46.985Z,31.10
2018-07-08T19:13:19.188Z,31.20
2018-07-08T19:15:50.911Z,30.80
2018-07-08T19:18:22.681Z,31.20
2018-07-08T19:20:54.105Z,30.80
2018-07-08T19:23:25.680Z,30.70
2018-07-08T19:25:57.421Z,30.90
2018-07-08T19:28:29.098Z,30.90
2018-07-08T19:31:00.756Z,30.80
2018-07-08T19:33:32.851Z,31.10
2018-07-08T19:36:05.480Z,31.20
2018-07-08T19:38:36.643Z,31.40
2018-07-08T19:43:38.893Z,32.10
2018-07-08T19:46:10.472Z,31.60
2018-07-08T19:51:13.281Z,31.40
2018-07-08T19:53:44.936Z,31.20
2018-07-08T19:56:16.386Z,31.10
2018-07-08T20:01:18.674Z,31.70
2018-07-08T20:03:50.399Z,32.10
2018-07-08T20:06:21.884Z,31.40
2018-07-08T20:08:54.046Z,31.70
2018-07-08T20:13:56.551Z,31.40
2018-07-08T20:16:28.033Z,30.90
2018-07-08T20:18:59.800Z,30.90
2018-07-08T20:21:31.674Z,31.10
2018-07-08T20:26:36.033Z,31.20
2018-07-08T20:29:07.674Z,30.60
2018-07-08T20:31:39.356Z,30.90
2018-07-08T20:36:40.719Z,30.70
2018-07-08T20:39:12.407Z,30.40
2018-07-08T20:41:44.273Z,30.60
2018-07-08T20:44:17.145Z,30.70
2018-07-08T20:46:48.381Z,30.30
2018-07-08T20:49:20.333Z,30.30
2018-07-08T20:51:51.930Z,30.10
2018-07-08T20:54:23.554Z,30.30
2018-07-08T20:56:55.227Z,30.30
2018-07-08T20:59:26.750Z,30.30
2018-07-08T21:01:58.294Z,30.60
2018-07-08T21:04:29.793Z,30.50
2018-07-08T21:07:01.284Z,30.30
2018-07-08T21:09:33.662Z,30.30
2018-07-08T21:12:05.126Z,30.40
2018-07-08T21:14:36.640Z,30.00
2018-07-08T21:17:08.060Z,29.90
2018-07-08T21:19:39.971Z,29.80
2018-07-08T21:22:11.854Z,29.80
2018-07-08T21:24:43.722Z,29.80
2018-07-08T21:27:15.677Z,29.80
2018-07-08T21:29:47.309Z,29.80
2018-07-08T21:32:18.756Z,30.30
2018-07-08T21:34:50.072Z,30.10
2018-07-08T21:37:22.147Z,29.70
2018-07-08T21:39:53.945Z,30.00
2018-07-08T21:42:25.520Z,30.00
2018-07-08T21:44:57.497Z,30.00
2018-07-08T21:47:29.297Z,29.70
2018-07-08T21:50:00.546Z,30.00
2018-07-08T21:52:32.618Z,29.50
2018-07-08T21:55:03.945Z,29.70
2018-07-08T21:57:35.308Z,29.40
2018-07-08T22:00:07.747Z,29.10
2018-07-08T22:02:39.247Z,29.20
2018-07-08T22:05:11.927Z,29.40
2018-07-08T22:07:47.752Z,29.20
2018-07-08T22:10:19.352Z,28.90
2018-07-08T22:12:50.848Z,29.10
2018-07-08T22:15:22.462Z,29.30
2018-07-08T22:17:53.692Z,29.30
2018-07-08T22:20:25.366Z,29.20
2018-07-08T22:22:57.309Z,28.90
2018-07-08T22:25:29.151Z,29.10
2018-07-08T22:28:00.479Z,28.80
2018-07-08T22:30:32.144Z,28.60
2018-07-08T22:33:03.715Z,28.60
2018-07-08T22:35:34.935Z,28.70
2018-07-08T22:38:06.318Z,28.60
2018-07-08T22:43:08.470Z,28.60
2018-07-08T22:45:40.254Z,28.50
2018-07-08T22:48:11.557Z,28.30
2018-07-08T22:50:42.837Z,28.10
2018-07-08T22:53:14.524Z,28.50
2018-07-08T22:55:46.322Z,28.20
2018-07-08T22:58:17.679Z,28.20
2018-07-08T23:00:58.604Z,28.10
2018-07-08T23:06:07.638Z,28.10
2018-07-08T23:08:38.980Z,27.90
2018-07-08T23:11:11.209Z,27.80
2018-07-08T23:16:13.036Z,27.60
2018-07-08T23:18:45.083Z,27.60
2018-07-08T23:21:16.832Z,27.40
2018-07-08T23:23:48.360Z,27.40
2018-07-08T23:26:19.973Z,27.30
2018-07-08T23:28:51.630Z,27.20
2018-07-08T23:31:22.792Z,27.00
2018-07-08T23:33:54.369Z,27.00
2018-07-08T23:36:26.039Z,26.80
2018-07-08T23:38:57.392Z,26.60
2018-07-08T23:41:28.947Z,26.50
2018-07-08T23:44:00.964Z,26.40
2018-07-08T23:46:32.921Z,26.30
2018-07-08T23:49:04.355Z,26.20
2018-07-08T23:51:35.669Z,26.20
2018-07-08T23:54:07.161Z,26.10
2018-07-08T23:56:38.489Z,25.90
2018-07-08T23:59:10.154Z,25.70
